Time;durP1;ratioP1;P1;durP2;ratioP2;P2;SDS_P1;SDS_P2;PMS_P1;PMS_P2;Temp;Humidity;BMP_temperature;BMP_pressure;BME280_temperature;BME280_humidity;BME280_pressure;Samples;Min_cycle;Max_cycle;Signal;HPM_P1;HPM_P2
2023/01/02 00:01:32;;;;;;;16.98;12.60;;;11.80;99.90;;;;;;5038505;28;20048;-96
2023/01/02 00:03:58;;;;;;;16.00;7.72;;;11.90;99.90;;;;;;5037556;28;20032;-96
2023/01/02 00:06:24;;;;;;;13.90;7.60;;;11.90;99.90;;;;;;5037942;28;20391;-94
2023/01/02 00:08:50;;;;;;;17.10;8.55;;;11.80;99.90;;;;;;5038191;28;20036;-95
2023/01/02 00:11:15;;;;;;;15.07;7.53;;;11.80;99.90;;;;;;5054430;28;20041;-95
2023/01/02 00:13:41;;;;;;;15.40;7.63;;;11.80;99.90;;;;;;5037211;28;20472;-96
2023/01/02 00:16:07;;;;;;;15.27;7.25;;;11.80;99.90;;;;;;5038126;28;20044;-95
2023/01/02 00:18:33;;;;;;;16.98;11.40;;;11.80;99.90;;;;;;5054126;28;20052;-95
2023/01/02 00:21:03;;;;;;;17.70;7.63;;;11.80;99.90;;;;;;5038124;28;20448;-94
2023/01/02 00:23:30;;;;;;;14.80;7.88;;;11.80;99.90;;;;;;5037418;28;20124;-96
2023/01/02 00:25:55;;;;;;;15.95;7.50;;;11.80;99.90;;;;;;5037758;28;20043;-95
2023/01/02 00:28:21;;;;;;;17.75;8.05;;;11.80;99.90;;;;;;5054572;28;20048;-95
2023/01/02 00:30:46;;;;;;;14.65;7.85;;;11.80;99.90;;;;;;5054169;28;20029;-96
2023/01/02 00:33:12;;;;;;;15.18;7.80;;;11.80;99.90;;;;;;5037823;28;20056;-95
2023/01/02 00:35:38;;;;;;;17.55;12.25;;;11.80;99.90;;;;;;5054555;28;20082;-95
2023/01/02 00:38:04;;;;;;;15.20;8.02;;;11.90;99.90;;;;;;5037396;28;20047;-96
2023/01/02 00:40:29;;;;;;;14.77;7.75;;;11.90;99.90;;;;;;5038066;28;20044;-96
2023/01/02 00:42:55;;;;;;;18.35;9.63;;;11.80;99.90;;;;;;5055135;28;20041;-96
2023/01/02 00:45:21;;;;;;;23.45;15.10;;;11.90;99.90;;;;;;5041777;28;20059;-95
2023/01/02 00:47:46;;;;;;;15.40;8.30;;;11.90;99.90;;;;;;5058273;28;20040;-95
2023/01/02 00:50:12;;;;;;;14.63;8.57;;;11.90;99.90;;;;;;5041920;28;20674;-96
2023/01/02 00:52:37;;;;;;;18.83;8.20;;;11.90;99.90;;;;;;5073748;28;20044;-95
2023/01/02 00:55:03;;;;;;;14.23;8.80;;;11.90;99.90;;;;;;5075001;28;20051;-96
2023/01/02 00:57:29;;;;;;;16.90;8.93;;;11.90;99.90;;;;;;5043475;28;20044;-95
2023/01/02 00:59:55;;;;;;;17.23;7.95;;;11.90;99.90;;;;;;5058309;28;20498;-95
2023/01/02 01:02:20;;;;;;;17.80;8.02;;;11.90;99.90;;;;;;5040585;28;20060;-96
2023/01/02 01:04:46;;;;;;;18.25;12.18;;;11.90;99.90;;;;;;5041243;28;20550;-96
2023/01/02 01:07:11;;;;;;;17.25;11.85;;;12.00;99.90;;;;;;5041667;28;20043;-96
2023/01/02 01:09:37;;;;;;;14.98;7.35;;;12.10;99.90;;;;;;5041019;28;20082;-95
2023/01/02 01:12:03;;;;;;;14.32;7.07;;;12.00;99.90;;;;;;5040830;28;20054;-96
2023/01/02 01:14:28;;;;;;;19.00;7.50;;;12.00;99.90;;;;;;5065837;28;20119;-96
2023/01/02 01:16:54;;;;;;;15.10;7.43;;;12.00;99.90;;;;;;5041410;28;20044;-94
2023/01/02 01:19:19;;;;;;;15.38;7.30;;;12.00;99.90;;;;;;5057802;28;20036;-95
2023/01/02 01:21:45;;;;;;;15.77;7.55;;;12.00;99.90;;;;;;5040223;28;20040;-94
2023/01/02 01:24:11;;;;;;;16.63;7.70;;;12.00;99.90;;;;;;5040842;28;20028;-94
2023/01/02 01:26:49;;;;;;;19.40;11.73;;;12.00;99.90;;;;;;5040647;28;20856;-95
2023/01/02 01:29:14;;;;;;;15.48;8.10;;;12.00;99.90;;;;;;5057348;28;20037;-96
2023/01/02 01:31:40;;;;;;;15.18;6.93;;;12.00;99.90;;;;;;5057559;28;20047;-95
2023/01/02 01:34:05;;;;;;;16.52;7.70;;;12.00;99.90;;;;;;5039395;28;20040;-91
2023/01/02 01:36:31;;;;;;;15.65;7.07;;;12.00;99.90;;;;;;5040768;28;20065;-96
2023/01/02 01:38:57;;;;;;;14.85;6.78;;;12.00;99.90;;;;;;5057102;28;20043;-96
2023/01/02 01:41:24;;;;;;;16.23;7.20;;;12.00;99.90;;;;;;5040767;28;20079;-95
2023/01/02 01:43:50;;;;;;;17.45;11.40;;;12.00;99.90;;;;;;5040302;28;20452;-96
2023/01/02 01:46:25;;;;;;;14.20;7.30;;;12.10;99.90;;;;;;5040470;28;20052;-96
2023/01/02 01:49:09;;;;;;;17.17;7.20;;;12.10;99.90;;;;;;5040759;28;20123;-96
2023/01/02 01:51:43;;;;;;;15.80;6.63;;;12.10;99.90;;;;;;5057264;28;20036;-96
2023/01/02 01:54:12;;;;;;;19.50;7.72;;;12.00;99.90;;;;;;5056134;28;20440;-96
2023/01/02 01:56:44;;;;;;;19.65;13.07;;;12.00;99.90;;;;;;5040152;28;20048;-96
2023/01/02 01:59:11;;;;;;;16.00;7.25;;;12.10;99.90;;;;;;5040143;28;20032;-96
2023/01/02 02:01:38;;;;;;;18.90;6.93;;;12.10;99.90;;;;;;5056667;28;20032;-96
2023/01/02 02:04:04;;;;;;;19.55;11.77;;;12.10;99.90;;;;;;5039060;28;20041;-96
2023/01/02 02:06:30;;;;;;;16.63;10.90;;;12.10;99.90;;;;;;5054648;28;20405;-96
2023/01/02 02:09:05;;;;;;;14.90;6.43;;;12.20;99.90;;;;;;5056672;28;20032;-95
2023/01/02 02:11:33;;;;;;;12.50;5.90;;;12.20;99.90;;;;;;5048325;28;20494;-96
2023/01/02 02:13:59;;;;;;;14.88;5.43;;;12.10;99.90;;;;;;5040136;28;20117;-95
2023/01/02 02:16:48;;;;;;;15.68;5.97;;;12.10;99.90;;;;;;5040307;28;20044;-95
2023/01/02 02:19:43;;;;;;;12.30;6.03;;;12.10;99.90;;;;;;5044837;28;20525;-96
2023/01/02 02:22:48;;;;;;;10.77;5.95;;;12.20;99.90;;;;;;5073022;28;20045;-96
2023/01/02 02:25:49;;;;;;;11.75;5.32;;;12.20;99.90;;;;;;5060000;28;20076;-96
2023/01/02 02:28:40;;;;;;;12.20;5.63;;;12.20;99.90;;;;;;5036563;28;20394;-96
2023/01/02 02:31:33;;;;;;;12.73;5.22;;;12.20;99.90;;;;;;5039693;28;20098;-95
2023/01/02 02:34:16;;;;;;;12.40;5.53;;;12.20;99.90;;;;;;5056537;28;20044;-96
2023/01/02 02:36:53;;;;;;;;;;;12.20;99.90;;;;;;5039456;28;20044;-96
2023/01/02 02:39:40;;;;;;;13.25;5.35;;;12.20;99.90;;;;;;5073326;28;19924;-96
2023/01/02 02:42:43;;;;;;;14.15;5.07;;;12.20;99.90;;;;;;5039757;28;20040;-96
2023/01/02 02:45:32;;;;;;;14.80;4.47;;;12.20;99.90;;;;;;5039462;28;20028;-94
2023/01/02 02:48:08;;;;;;;12.95;5.45;;;12.20;99.90;;;;;;5056225;28;20394;-96
2023/01/02 02:51:00;;;;;;;14.63;5.28;;;12.20;99.90;;;;;;5039437;28;20036;-95
2023/01/02 02:53:34;;;;;;;14.02;5.72;;;12.20;99.90;;;;;;5039071;28;20485;-94
2023/01/02 02:56:04;;;;;;;14.27;5.22;;;12.20;99.90;;;;;;5038926;28;20577;-94
2023/01/02 02:58:31;;;;;;;14.88;8.10;;;12.20;99.90;;;;;;5039644;28;20097;-94
2023/01/02 03:01:07;;;;;;;15.73;6.25;;;12.30;99.90;;;;;;5038423;28;20070;-95
2023/01/02 03:03:33;;;;;;;12.50;5.10;;;12.30;99.90;;;;;;5055845;28;20045;-95
2023/01/02 03:06:16;;;;;;;12.80;5.07;;;12.20;99.90;;;;;;5039029;28;20398;-95
2023/01/02 03:08:48;;;;;;;16.42;8.35;;;12.30;99.90;;;;;;5039100;28;20047;-95
2023/01/02 03:11:14;;;;;;;9.98;4.80;;;12.30;99.90;;;;;;5038648;28;20036;-95
2023/01/02 03:14:11;;;;;;;10.45;4.43;;;12.30;99.90;;;;;;5038926;28;20045;-96
2023/01/02 03:16:39;;;;;;;13.43;5.35;;;12.30;99.90;;;;;;5033328;28;20117;-96
2023/01/02 03:19:19;;;;;;;14.23;7.72;;;12.30;99.90;;;;;;5038545;28;20044;-96
2023/01/02 03:22:00;;;;;;;15.30;8.48;;;12.30;99.90;;;;;;5038865;28;20044;-96
2023/01/02 03:24:27;;;;;;;10.73;4.35;;;12.30;99.90;;;;;;5054884;28;20039;-94
2023/01/02 03:27:00;;;;;;;13.85;5.68;;;12.30;99.90;;;;;;5038901;28;20041;-96
2023/01/02 03:29:35;;;;;;;16.90;8.52;;;12.30;99.90;;;;;;5038459;28;20043;-95
2023/01/02 03:32:05;;;;;;;11.70;4.85;;;12.30;99.90;;;;;;5054881;28;20049;-95
2023/01/02 03:34:33;;;;;;;13.15;5.57;;;12.20;99.90;;;;;;5038780;28;20087;-96
2023/01/02 03:37:06;;;;;;;16.02;8.75;;;12.20;99.90;;;;;;5055748;28;20082;-95
2023/01/02 03:39:37;;;;;;;11.75;4.93;;;12.20;99.90;;;;;;5054903;28;20502;-96
2023/01/02 03:42:08;;;;;;;16.83;5.18;;;12.20;99.90;;;;;;5038702;28;20045;-95
2023/01/02 03:44:42;;;;;;;13.77;5.10;;;12.20;99.90;;;;;;5054747;28;20409;-95
2023/01/02 03:47:33;;;;;;;15.50;8.23;;;12.20;99.90;;;;;;5038512;28;20036;-95
2023/01/02 03:50:06;;;;;;;14.93;5.18;;;12.30;99.90;;;;;;5038703;28;20512;-96
2023/01/02 03:52:32;;;;;;;14.23;4.38;;;12.20;99.90;;;;;;5087836;28;20169;-95
2023/01/02 03:54:59;;;;;;;12.05;4.28;;;12.20;99.90;;;;;;5038708;28;20036;-95
2023/01/02 03:57:50;;;;;;;13.70;5.05;;;12.20;99.90;;;;;;5037887;28;20042;-95
2023/01/02 04:00:18;;;;;;;15.48;7.93;;;12.20;99.90;;;;;;5037841;28;20131;-95
2023/01/02 04:02:53;;;;;;;12.02;4.88;;;12.30;99.90;;;;;;5037644;28;20514;-95
2023/01/02 04:05:47;;;;;;;11.00;4.20;;;12.30;99.90;;;;;;5038636;28;20032;-95
2023/01/02 04:08:26;;;;;;;12.15;5.10;;;12.30;99.90;;;;;;5038401;28;20551;-95
2023/01/02 04:10:53;;;;;;;15.77;5.13;;;12.20;99.90;;;;;;5029921;28;20040;-95
2023/01/02 04:13:31;;;;;;;11.75;5.03;;;12.30;99.90;;;;;;5054875;28;20049;-96
2023/01/02 04:15:59;;;;;;;16.27;8.75;;;12.20;99.90;;;;;;5054740;28;20100;-96
2023/01/02 04:18:36;;;;;;;11.00;5.57;;;12.30;99.90;;;;;;5057451;28;20125;-95
2023/01/02 04:21:09;;;;;;;13.75;4.90;;;12.30;99.90;;;;;;5069072;28;20052;-96
2023/01/02 04:23:50;;;;;;;10.35;4.70;;;12.30;99.90;;;;;;5045017;28;20131;-95
2023/01/02 04:26:25;;;;;;;12.63;4.65;;;12.30;99.90;;;;;;5044511;28;20489;-95
2023/01/02 04:28:52;;;;;;;13.07;4.70;;;12.30;99.90;;;;;;5044714;28;20036;-96
2023/01/02 04:31:23;;;;;;;14.63;7.32;;;12.30;99.90;;;;;;5045018;28;20037;-95
2023/01/02 04:33:53;;;;;;;13.07;4.57;;;12.40;99.90;;;;;;5044494;28;20110;-95
2023/01/02 04:36:19;;;;;;;10.40;4.05;;;12.40;99.90;;;;;;5044800;28;20077;-95
2023/01/02 04:38:45;;;;;;;9.52;3.13;;;12.40;99.90;;;;;;5044359;28;20041;-96
2023/01/02 04:41:17;;;;;;;15.90;6.80;;;12.40;99.90;;;;;;5044194;28;20048;-96
2023/01/02 04:43:43;;;;;;;9.60;3.63;;;12.50;99.90;;;;;;5044596;28;20040;-95
2023/01/02 04:46:09;;;;;;;15.52;6.95;;;12.50;99.90;;;;;;5044345;28;20123;-95
2023/01/02 04:48:34;;;;;;;10.70;4.13;;;12.60;99.90;;;;;;5061309;28;20048;-95
2023/01/02 04:51:00;;;;;;;15.50;7.07;;;12.50;99.90;;;;;;5044467;28;20036;-95
2023/01/02 04:53:26;;;;;;;12.60;4.47;;;12.60;99.90;;;;;;5060180;28;20039;-95
2023/01/02 04:55:57;;;;;;;10.63;4.45;;;12.60;99.90;;;;;;5044493;28;20085;-95
2023/01/02 04:58:23;;;;;;;9.98;4.45;;;12.60;99.90;;;;;;5044022;28;20044;-96
2023/01/02 05:00:49;;;;;;;13.48;4.60;;;12.60;99.90;;;;;;5044189;28;20043;-96
2023/01/02 05:03:15;;;;;;;12.50;4.93;;;12.60;99.90;;;;;;5044331;28;20513;-95
2023/01/02 05:05:40;;;;;;;13.52;6.50;;;12.60;99.90;;;;;;5060743;28;20045;-95
2023/01/02 05:08:07;;;;;;;15.45;7.10;;;12.60;99.90;;;;;;5061662;28;20123;-93
2023/01/02 05:10:33;;;;;;;14.45;6.90;;;12.60;99.90;;;;;;5060794;28;20078;-94
2023/01/02 05:12:59;;;;;;;12.98;4.50;;;12.70;99.90;;;;;;5043823;28;20048;-96
2023/01/02 05:15:25;;;;;;;17.88;4.78;;;12.70;99.90;;;;;;5044696;28;20048;-96
2023/01/02 05:17:50;;;;;;;10.13;4.03;;;12.60;99.90;;;;;;5044029;28;20040;-96
2023/01/02 05:20:16;;;;;;;12.85;4.18;;;12.60;99.90;;;;;;5061415;28;20131;-96
2023/01/02 05:25:30;;;;;;;17.45;7.85;;;12.60;99.90;;;;;;5061248;28;20036;-96
2023/01/02 05:27:56;;;;;;;18.17;8.15;;;12.70;99.90;;;;;;5044227;28;20035;-95
2023/01/02 05:30:22;;;;;;;11.95;4.72;;;12.70;99.90;;;;;;5048967;28;20033;-96
2023/01/02 05:32:48;;;;;;;11.82;4.63;;;12.70;99.90;;;;;;5041079;28;20044;-95
2023/01/02 05:35:14;;;;;;;12.13;4.28;;;12.60;99.90;;;;;;5041061;28;20048;-95
2023/01/02 05:37:39;;;;;;;15.68;7.18;;;12.60;99.90;;;;;;5040920;28;20040;-95
2023/01/02 05:40:05;;;;;;;14.07;5.38;;;12.60;99.90;;;;;;5041014;28;20040;-94
2023/01/02 05:42:31;;;;;;;12.85;4.15;;;12.60;99.90;;;;;;5040734;28;20044;-95
2023/01/02 05:44:56;;;;;;;15.70;7.47;;;12.60;99.90;;;;;;5071957;28;20059;-95
2023/01/02 05:47:22;;;;;;;14.43;4.00;;;12.60;99.90;;;;;;5057895;28;20125;-94
2023/01/02 05:49:47;;;;;;;11.93;3.80;;;12.60;99.90;;;;;;5062470;28;20036;-95
2023/01/02 05:52:13;;;;;;;13.02;4.57;;;12.60;99.90;;;;;;5040963;28;20123;-95
2023/01/02 05:54:39;;;;;;;10.73;4.07;;;12.60;99.90;;;;;;5057454;28;20445;-95
2023/01/02 05:57:05;;;;;;;15.05;6.72;;;12.60;99.90;;;;;;5040647;28;20443;-95
2023/01/02 05:59:30;;;;;;;14.75;4.00;;;12.60;99.90;;;;;;5057200;28;20047;-95
2023/01/02 06:01:56;;;;;;;14.32;5.47;;;12.70;99.90;;;;;;5040422;28;20082;-96
2023/01/02 06:04:21;;;;;;;11.90;6.40;;;12.60;99.90;;;;;;5040536;28;20048;-95
2023/01/02 06:06:48;;;;;;;11.90;4.20;;;12.60;99.90;;;;;;5040334;28;20036;-96
2023/01/02 06:09:15;;;;;;;8.93;3.65;;;12.70;99.90;;;;;;5040527;28;20052;-95
2023/01/02 06:11:40;;;;;;;14.00;6.40;;;12.60;99.90;;;;;;5039206;28;20036;-95
2023/01/02 06:14:07;;;;;;;9.70;3.80;;;12.70;99.90;;;;;;5039415;28;20062;-96
2023/01/02 06:16:34;;;;;;;10.23;4.18;;;12.70;99.90;;;;;;5040063;28;20071;-95
2023/01/02 06:18:59;;;;;;;10.75;3.83;;;12.60;99.90;;;;;;5043327;28;20048;-95
2023/01/02 06:21:25;;;;;;;14.13;6.20;;;12.60;99.90;;;;;;5056718;28;20037;-95
2023/01/02 06:23:56;;;;;;;11.57;6.18;;;12.70;99.90;;;;;;5051763;28;20049;-96
2023/01/02 06:26:23;;;;;;;11.27;3.30;;;12.70;99.90;;;;;;5040067;28;20387;-95
2023/01/02 06:28:55;;;;;;;13.70;6.53;;;12.70;99.90;;;;;;5055541;28;20380;-95
2023/01/02 06:31:24;;;;;;;9.52;3.92;;;12.80;99.90;;;;;;5039244;28;20044;-95
2023/01/02 06:33:57;;;;;;;12.05;4.35;;;12.80;99.90;;;;;;5039483;28;20036;-96
2023/01/02 06:36:23;;;;;;;10.80;3.75;;;12.70;99.90;;;;;;5031282;28;20040;-95
2023/01/02 06:38:56;;;;;;;10.00;3.70;;;12.70;99.90;;;;;;5040312;28;20093;-93
2023/01/02 06:41:22;;;;;;;8.25;3.70;;;12.70;99.90;;;;;;5039340;28;20037;-95
2023/01/02 06:43:49;;;;;;;11.88;5.63;;;12.70;99.90;;;;;;5039896;28;20508;-96
2023/01/02 06:46:19;;;;;;;11.35;5.70;;;12.70;99.90;;;;;;5055806;28;20041;-96
2023/01/02 06:48:47;;;;;;;9.65;3.65;;;12.70;99.90;;;;;;5056349;28;20075;-96
2023/01/02 06:51:16;;;;;;;8.38;3.58;;;12.70;99.90;;;;;;5039371;28;20040;-95
2023/01/02 06:53:43;;;;;;;12.13;5.97;;;12.70;99.90;;;;;;5053985;28;20494;-95
2023/01/02 06:56:10;;;;;;;11.23;3.97;;;12.70;99.90;;;;;;5056286;28;20041;-96
2023/01/02 06:58:37;;;;;;;13.70;6.22;;;12.70;99.90;;;;;;5041722;28;20044;-96
2023/01/02 07:01:08;;;;;;;11.38;5.60;;;12.70;99.90;;;;;;5039649;28;20047;-95
2023/01/02 07:03:34;;;;;;;11.23;4.47;;;12.70;99.90;;;;;;5039036;28;20067;-95
2023/01/02 07:06:07;;;;;;;8.05;3.35;;;12.70;99.90;;;;;;5039861;28;20036;-96
2023/01/02 07:08:33;;;;;;;12.82;6.38;;;12.70;99.90;;;;;;5039407;28;20510;-95
2023/01/02 07:11:14;;;;;;;11.30;4.55;;;12.70;99.90;;;;;;5055362;28;20025;-95
2023/01/02 07:13:42;;;;;;;8.82;3.47;;;12.70;99.90;;;;;;5054779;28;20127;-96
2023/01/02 07:16:12;;;;;;;13.75;4.32;;;12.70;99.90;;;;;;5056855;28;20070;-96
2023/01/02 07:18:38;;;;;;;9.20;3.53;;;12.70;99.90;;;;;;5058968;28;20413;-96
2023/01/02 07:21:28;;;;;;;11.43;5.82;;;12.60;99.90;;;;;;5041183;28;20537;-94
2023/01/02 07:23:55;;;;;;;13.68;7.25;;;12.70;99.90;;;;;;5024818;28;20076;-94
2023/01/02 07:26:21;;;;;;;9.85;3.65;;;12.70;99.90;;;;;;5049201;28;20509;-94
2023/01/02 07:28:47;;;;;;;5.10;1.70;;;12.60;99.90;;;;;;5039757;28;20037;-94
2023/01/02 07:31:18;;;;;;;5.90;2.35;;;12.50;99.90;;;;;;5040844;28;20037;-96
2023/01/02 07:33:43;;;;;;;3.67;1.50;;;12.50;99.90;;;;;;5038226;28;20076;-95
2023/01/02 07:36:17;;;;;;;3.97;1.50;;;12.30;99.90;;;;;;5038722;28;20040;-95
2023/01/02 07:38:43;;;;;;;3.47;1.23;;;12.20;99.90;;;;;;5038813;28;20040;-96
2023/01/02 07:41:17;;;;;;;3.42;1.35;;;12.10;99.90;;;;;;5038890;28;20036;-95
2023/01/02 07:43:46;;;;;;;3.17;1.30;;;11.90;99.90;;;;;;5038828;28;20040;-96
2023/01/02 07:46:36;;;;;;;2.83;1.10;;;11.80;99.90;;;;;;5038561;28;20040;-96
2023/01/02 07:49:02;;;;;;;2.22;0.90;;;11.70;99.90;;;;;;4958561;28;20047;-95
2023/01/02 07:51:27;;;;;;;6.43;1.10;;;11.60;99.90;;;;;;4974200;28;20057;-95
2023/01/02 07:53:53;;;;;;;1.95;1.00;;;11.50;99.90;;;;;;4973903;28;20157;-96
2023/01/02 07:56:19;;;;;;;4.00;1.42;;;11.40;99.90;;;;;;4975154;28;20034;-95
2023/01/02 07:58:44;;;;;;;3.92;1.48;;;11.30;99.90;;;;;;4974740;28;20607;-94
2023/01/02 08:01:11;;;;;;;3.25;1.48;;;11.20;99.90;;;;;;4958723;28;20050;-96
2023/01/02 08:03:37;;;;;;;3.70;1.67;;;11.10;99.90;;;;;;4954655;28;20102;-95
2023/01/02 08:06:12;;;;;;;4.07;1.65;;;11.10;99.90;;;;;;4939414;28;20425;-95
2023/01/02 08:08:45;;;;;;;4.68;2.10;;;11.10;99.90;;;;;;4977168;28;20157;-95
2023/01/02 08:11:14;;;;;;;4.60;2.15;;;11.00;99.90;;;;;;4958719;28;20104;-95
2023/01/02 08:13:40;;;;;;;5.35;2.28;;;11.00;99.90;;;;;;4958517;28;20082;-96
2023/01/02 08:16:11;;;;;;;6.50;2.42;;;10.90;99.90;;;;;;4974743;28;20089;-96
2023/01/02 08:18:37;;;;;;;4.93;2.35;;;10.90;99.90;;;;;;4971787;28;20584;-96
2023/01/02 08:21:03;;;;;;;5.28;2.13;;;10.80;99.90;;;;;;4946326;28;20049;-96
2023/01/02 08:23:29;;;;;;;6.10;2.42;;;10.70;99.90;;;;;;4958354;28;20043;-96
2023/01/02 08:25:59;;;;;;;6.40;2.78;;;10.70;99.90;;;;;;4994734;28;20520;-96
2023/01/02 08:28:34;;;;;;;6.55;2.63;;;10.70;99.90;;;;;;5054121;28;20760;-96
2023/01/02 08:31:00;;;;;;;5.78;2.38;;;10.60;99.90;;;;;;5054781;28;20033;-95
2023/01/02 08:33:26;;;;;;;6.07;2.42;;;10.50;99.90;;;;;;5037737;28;20040;-94
2023/01/02 08:35:52;;;;;;;6.85;2.67;;;10.50;99.90;;;;;;5054606;28;20107;-95
2023/01/02 08:38:19;;;;;;;6.03;2.30;;;10.40;99.90;;;;;;5055159;28;20516;-95
2023/01/02 08:40:45;;;;;;;7.38;2.95;;;10.40;99.90;;;;;;5037814;28;20064;-95
2023/01/02 08:43:10;;;;;;;5.75;1.73;;;10.30;99.90;;;;;;5037359;28;20068;-95
2023/01/02 08:45:36;;;;;;;6.80;2.63;;;10.20;99.90;;;;;;5037558;28;20040;-95
2023/01/02 08:48:02;;;;;;;7.75;2.95;;;10.20;99.90;;;;;;5037202;28;20509;-95
2023/01/02 08:50:28;;;;;;;7.15;2.53;;;10.20;99.90;;;;;;5037613;28;20094;-94
2023/01/02 08:52:53;;;;;;;5.20;2.08;;;10.10;99.90;;;;;;5053904;28;20037;-96
2023/01/02 08:55:20;;;;;;;5.38;1.88;;;10.10;99.90;;;;;;5037931;28;20047;-96
2023/01/02 08:57:45;;;;;;;5.85;2.05;;;10.00;99.90;;;;;;5037542;28;20102;-95
2023/01/02 09:00:11;;;;;;;8.07;2.30;;;9.90;99.90;;;;;;5053941;28;20041;-95
2023/01/02 09:02:37;;;;;;;6.75;1.80;;;9.90;99.90;;;;;;5054058;28;20564;-95
2023/01/02 09:05:03;;;;;;;5.55;2.03;;;9.80;99.90;;;;;;5056357;28;20094;-96
2023/01/02 09:07:31;;;;;;;5.43;1.73;;;9.80;99.90;;;;;;5041747;28;20490;-95
2023/01/02 09:09:57;;;;;;;6.47;2.47;;;9.80;99.90;;;;;;5041015;28;20036;-95
2023/01/02 09:12:24;;;;;;;6.45;2.03;;;9.70;99.90;;;;;;5040745;28;20081;-95
2023/01/02 09:14:49;;;;;;;5.10;1.63;;;9.70;99.90;;;;;;5039370;28;20094;-95
2023/01/02 09:17:15;;;;;;;6.90;2.22;;;9.60;99.90;;;;;;5057464;28;20071;-96
2023/01/02 09:19:41;;;;;;;6.07;1.83;;;9.60;99.90;;;;;;5057424;28;20044;-96
2023/01/02 09:22:08;;;;;;;5.15;1.70;;;9.60;99.90;;;;;;5057038;28;20429;-95
2023/01/02 09:24:33;;;;;;;4.18;1.48;;;9.60;99.90;;;;;;5040667;28;20037;-95
2023/01/02 09:26:59;;;;;;;5.00;1.35;;;9.50;99.90;;;;;;5041352;28;20028;-95
2023/01/02 09:29:25;;;;;;;5.22;1.40;;;9.50;99.90;;;;;;5056417;28;20644;-96
2023/01/02 09:31:50;;;;;;;4.50;1.48;;;9.50;99.90;;;;;;5057653;28;20048;-95
2023/01/02 09:34:16;;;;;;;4.75;1.50;;;9.40;99.90;;;;;;5040602;28;20040;-95
2023/01/02 09:36:45;;;;;;;5.20;1.58;;;9.40;99.90;;;;;;5057122;28;20055;-95
2023/01/02 09:39:11;;;;;;;4.47;1.50;;;9.40;99.90;;;;;;5040398;28;20037;-94
2023/01/02 09:41:52;;;;;;;4.00;1.33;;;9.40;99.90;;;;;;5039756;28;20036;-95
2023/01/02 09:44:28;;;;;;;7.72;2.47;;;9.40;99.90;;;;;;5040781;28;20132;-95
2023/01/02 09:47:04;;;;;;;6.28;1.73;;;9.40;99.90;;;;;;5040465;28;20043;-95
2023/01/02 09:49:34;;;;;;;7.38;2.03;;;9.40;99.90;;;;;;5049017;28;20037;-95
2023/01/02 09:52:00;;;;;;;3.28;1.08;;;9.40;99.90;;;;;;5057202;28;20381;-95
2023/01/02 09:54:32;;;;;;;5.35;1.38;;;9.40;99.90;;;;;;5056348;28;20557;-94
2023/01/02 09:57:37;;;;;;;5.25;1.35;;;9.40;99.90;;;;;;5040666;28;20482;-95
2023/01/02 10:00:19;;;;;;;5.75;1.40;;;9.40;99.90;;;;;;5032417;28;20045;-95
2023/01/02 10:03:10;;;;;;;5.00;1.38;;;9.30;99.90;;;;;;5020557;28;20040;-96
2023/01/02 10:05:57;;;;;;;4.32;1.52;;;9.30;99.90;;;;;;5044763;28;20052;-95
2023/01/02 10:08:57;;;;;;;5.18;1.20;;;9.30;99.90;;;;;;5053971;28;20045;-94
2023/01/02 10:11:25;;;;;;;5.00;1.27;;;9.30;99.90;;;;;;5040558;28;20094;-95
2023/01/02 10:13:57;;;;;;;5.20;1.50;;;9.30;99.90;;;;;;5056614;28;20033;-96
2023/01/02 10:16:30;;;;;;;3.70;1.27;;;9.30;99.90;;;;;;5039329;28;20040;-95
2023/01/02 10:19:00;;;;;;;5.05;1.20;;;9.30;99.90;;;;;;5040325;28;20283;-95
2023/01/02 10:21:36;;;;;;;3.63;1.13;;;9.40;99.90;;;;;;5040196;28;20032;-95
2023/01/02 10:24:18;;;;;;;4.50;1.23;;;9.40;99.90;;;;;;5039128;28;20036;-94
2023/01/02 10:26:48;;;;;;;3.35;1.00;;;9.40;99.90;;;;;;5040136;28;20045;-95
2023/01/02 10:29:17;;;;;;;4.35;1.27;;;9.40;99.90;;;;;;5039940;28;20041;-94
2023/01/02 10:31:44;;;;;;;3.75;1.27;;;9.40;99.90;;;;;;5039010;28;20041;-95
2023/01/02 10:34:16;;;;;;;4.50;1.25;;;9.40;99.90;;;;;;5039552;28;20045;-94
2023/01/02 10:37:13;;;;;;;6.07;1.52;;;9.50;99.90;;;;;;5056548;28;20121;-96
2023/01/02 10:39:41;;;;;;;5.32;1.52;;;9.50;99.90;;;;;;4960207;28;20637;-95
2023/01/02 10:42:11;;;;;;;5.15;1.90;;;9.50;99.90;;;;;;4975644;28;20092;-94
2023/01/02 10:44:38;;;;;;;4.97;1.50;;;9.50;99.90;;;;;;4956746;28;20050;-96
2023/01/02 10:47:16;;;;;;;2.67;1.00;;;9.50;99.90;;;;;;4941013;28;20070;-95
2023/01/02 10:49:44;;;;;;;4.40;1.33;;;9.50;99.90;;;;;;4967328;28;20066;-94
2023/01/02 10:52:15;;;;;;;5.93;1.63;;;9.40;99.90;;;;;;4960227;28;20054;-96
2023/01/02 10:54:53;;;;;;;4.05;1.30;;;9.40;99.90;;;;;;4975958;28;20039;-95
2023/01/02 10:57:37;;;;;;;3.30;1.35;;;9.40;99.90;;;;;;4959479;28;20166;-96
2023/01/02 11:00:04;;;;;;;5.50;1.60;;;9.50;99.90;;;;;;4959315;28;20038;-95
2023/01/02 11:02:38;;;;;;;6.10;1.65;;;9.50;99.90;;;;;;4983339;28;20038;-94
2023/01/02 11:05:06;;;;;;;4.82;1.42;;;9.50;99.90;;;;;;4975128;28;20046;-94
2023/01/02 11:07:37;;;;;;;4.43;1.55;;;9.50;99.90;;;;;;4975260;28;20078;-95
2023/01/02 11:10:03;;;;;;;5.00;1.38;;;9.50;99.90;;;;;;4975211;28;20046;-95
2023/01/02 11:12:31;;;;;;;4.82;1.45;;;9.60;99.90;;;;;;4959246;28;20624;-95
2023/01/02 11:15:11;;;;;;;4.47;1.50;;;9.60;99.90;;;;;;4976001;28;20524;-94
2023/01/02 11:17:44;;;;;;;3.92;1.60;;;9.60;99.90;;;;;;5034626;28;20048;-96
2023/01/02 11:20:24;;;;;;;;;;;9.60;99.90;;;;;;5056115;28;20442;-95
2023/01/02 11:22:50;;;;;;;5.93;1.40;;;9.60;99.90;;;;;;5038704;28;19920;-95
2023/01/02 11:25:23;;;;;;;4.80;1.50;;;9.60;99.90;;;;;;5039102;28;20561;-94
2023/01/02 11:28:25;;;;;;;6.15;1.92;;;9.60;99.90;;;;;;5037909;28;20068;-94
2023/01/02 11:31:01;;;;;;;6.65;1.80;;;9.60;99.90;;;;;;4959093;28;20046;-95
2023/01/02 11:33:29;;;;;;;5.32;1.77;;;9.60;99.90;;;;;;4971854;28;20043;-94
2023/01/02 11:36:03;;;;;;;5.30;1.75;;;9.60;99.90;;;;;;4972057;28;20090;-94
2023/01/02 11:38:49;;;;;;;6.53;2.05;;;9.50;99.90;;;;;;4985366;28;20133;-95
2023/01/02 11:44:30;;;;;;;4.88;1.85;;;9.60;99.90;;;;;;4974705;28;20050;-94
2023/01/02 11:46:57;;;;;;;5.80;1.55;;;9.60;99.90;;;;;;4971809;28;20737;-95
2023/01/02 11:49:27;;;;;;;7.15;2.28;;;9.60;99.90;;;;;;4974379;28;20057;-96
2023/01/02 11:52:00;;;;;;;6.78;2.00;;;9.60;99.90;;;;;;4958903;28;20035;-94
2023/01/02 11:54:48;;;;;;;7.90;2.75;;;9.60;99.90;;;;;;4959191;28;20050;-95
2023/01/02 11:57:44;;;;;;;7.80;3.15;;;9.60;99.90;;;;;;4959174;28;20574;-93
2023/01/02 12:00:15;;;;;;;7.00;3.17;;;9.60;99.90;;;;;;4955027;28;20058;-95
2023/01/02 12:02:44;;;;;;;7.82;3.80;;;9.60;99.90;;;;;;4958865;28;20049;-93
2023/01/02 12:05:13;;;;;;;9.63;3.85;;;9.60;99.90;;;;;;4973664;28;20053;-92
2023/01/02 12:07:45;;;;;;;8.40;3.40;;;9.70;99.90;;;;;;4996845;28;20040;-91
2023/01/02 12:10:31;;;;;;;9.40;3.55;;;9.70;99.90;;;;;;5036722;28;20064;-91
2023/01/02 12:13:05;;;;;;;8.95;4.03;;;9.80;99.90;;;;;;5037371;28;20044;-95
2023/01/02 12:16:09;;;;;;;10.65;4.57;;;9.90;99.90;;;;;;5038217;28;20047;-95
2023/01/02 12:19:07;;;;;;;6.53;3.00;;;9.90;99.90;;;;;;4998792;28;20059;-96
2023/01/02 12:21:43;;;;;;;8.38;3.60;;;9.90;99.90;;;;;;5038475;28;20146;-95
2023/01/02 12:24:39;;;;;;;9.10;2.38;;;9.90;99.90;;;;;;5038336;28;20090;-96
2023/01/02 12:27:23;;;;;;;8.77;2.20;;;9.90;99.90;;;;;;5038514;28;20049;-95
2023/01/02 12:30:21;;;;;;;6.05;1.90;;;9.80;99.90;;;;;;5035734;28;20041;-92
2023/01/02 12:33:27;;;;;;;10.10;2.47;;;9.80;99.90;;;;;;5009986;28;20085;-93
2023/01/02 12:36:34;;;;;;;6.82;1.58;;;9.80;99.90;;;;;;5016613;28;20064;-90
2023/01/02 12:39:31;;;;;;;5.63;1.42;;;9.80;99.90;;;;;;5016840;28;20135;-90
2023/01/02 12:42:07;;;;;;;4.05;1.17;;;9.80;99.90;;;;;;5057448;28;20409;-90
2023/01/02 12:44:54;;;;;;;5.40;1.45;;;9.80;99.90;;;;;;5057360;28;20044;-89
2023/01/02 12:47:25;;;;;;;7.75;1.40;;;9.80;99.90;;;;;;5057779;28;20531;-94
2023/01/02 12:50:12;;;;;;;7.22;1.23;;;9.70;99.90;;;;;;5055414;28;20087;-91
2023/01/02 12:53:17;;;;;;;5.95;1.85;;;9.70;99.90;;;;;;5039055;28;20079;-90
2023/01/02 12:56:24;;;;;;;6.60;1.70;;;9.70;99.90;;;;;;4956808;28;20058;-90
2023/01/02 12:59:03;;;;;;;6.25;2.13;;;9.70;99.90;;;;;;4920229;28;20050;-91
2023/01/02 13:01:50;;;;;;;10.95;2.05;;;9.70;99.90;;;;;;4941214;28;20127;-90
2023/01/02 13:04:19;;;;;;;8.43;1.33;;;9.70;99.90;;;;;;4940685;28;20409;-91
2023/01/02 13:06:57;;;;;;;5.28;1.23;;;9.70;99.90;;;;;;4957139;28;20130;-89
2023/01/02 13:09:38;;;;;;;7.47;1.42;;;9.70;99.90;;;;;;4973381;28;20444;-90
2023/01/02 13:12:16;;;;;;;9.20;1.80;;;9.70;99.90;;;;;;4972415;28;20051;-89
2023/01/02 13:14:53;;;;;;;7.22;1.75;;;9.70;99.90;;;;;;4956996;28;20039;-90
2023/01/02 13:17:27;;;;;;;6.88;1.70;;;9.70;99.90;;;;;;4955867;28;20121;-90